Time;durP1;ratioP1;P1;durP2;ratioP2;P2;SDS_P1;SDS_P2;PMS_P1;PMS_P2;Temp;Humidity;BMP_temperature;BMP_pressure;BME280_temperature;BME280_humidity;BME280_pressure;Samples;Min_cycle;Max_cycle;Signal;HPM_P1;HPM_P2
2022/05/11 00:00:21;;;;;;;;;;;;;;;22.57;45.42;100872.59;5112228;27;4407;-62
2022/05/11 00:02:48;;;;;;;;;;;;;;;22.58;45.33;100874.06;5114376;27;5492;-62
2022/05/11 00:05:14;;;;;;;;;;;;;;;22.57;45.24;100884.88;5112577;27;4044;-61
2022/05/11 00:07:40;;;;;;;;;;;;;;;22.57;45.06;100884.88;5105052;27;5530;-62
2022/05/11 00:10:11;;;;;;;;;;;;;;;22.57;45.24;100884.88;5113196;27;4187;-62
2022/05/11 00:12:40;;;;;;;;;;;;;;;22.56;45.19;100880.53;5107772;27;4171;-62
2022/05/11 00:15:06;;;;;;;;;;;;;;;22.55;44.99;100887.69;5116714;27;4304;-62
2022/05/11 00:17:33;;;;;;;;;;;;;;;22.55;44.92;100881.91;5108030;27;4320;-62
2022/05/11 00:20:00;;;;;;;;;;;;;;;22.55;45.21;100876.13;5106180;27;4205;-62
2022/05/11 00:22:26;;;;;;;;;;;;;;;22.54;44.93;100874.66;5109328;27;4189;-62
2022/05/11 00:24:53;;;;;;;;;;;;;;;22.52;45.12;100883.25;5107621;27;4248;-62
2022/05/11 00:27:19;;;;;;;;;;;;;;;22.53;45.38;100896.25;5113184;27;5336;-62
2022/05/11 00:29:45;;;;;;;;;;;;;;;22.53;45.33;100904.91;5108031;27;5339;-62
2022/05/11 00:32:12;;;;;;;;;;;;;;;22.53;45.17;100925.13;5114110;27;4231;-62
2022/05/11 00:34:38;;;;;;;;;;;;;;;22.53;45.21;100925.13;5100036;27;4186;-62
2022/05/11 00:37:05;;;;;;;;;;;;;;;22.53;45.22;100913.56;5106755;27;5408;-62
2022/05/11 00:39:33;;;;;;;;;;;;;;;22.52;45.45;100912.09;5110855;27;4324;-62
2022/05/11 00:42:00;;;;;;;;;;;;;;;22.52;45.44;100917.88;5111090;27;4038;-62
2022/05/11 00:44:27;;;;;;;;;;;;;;;22.51;45.49;100913.50;5114971;27;4076;-62
2022/05/11 00:46:57;;;;;;;;;;;;;;;22.51;45.45;100909.88;5115210;27;4209;-62
2022/05/11 00:49:44;;;;;;;;;;;;;;;22.51;45.37;100901.94;5093471;27;4168;-62
2022/05/11 00:52:11;;;;;;;;;;;;;;;22.50;45.36;100891.81;5107496;27;4162;-61
2022/05/11 00:54:39;;;;;;;;;;;;;;;22.51;45.52;100878.88;5098251;27;4074;-62
2022/05/11 00:57:06;;;;;;;;;;;;;;;22.49;45.33;100878.78;5098432;27;4985;-62
2022/05/11 00:59:34;;;;;;;;;;;;;;;22.49;45.57;100875.91;5101184;27;4108;-62
2022/05/11 01:02:04;;;;;;;;;;;;;;;22.49;45.35;100878.03;5109229;27;4057;-62
2022/05/11 01:04:31;;;;;;;;;;;;;;;22.50;45.44;100856.47;5102910;27;4067;-62
2022/05/11 01:06:57;;;;;;;;;;;;;;;22.49;45.70;100849.94;5112606;27;4173;-62
2022/05/11 01:09:24;;;;;;;;;;;;;;;22.49;45.42;100849.19;5094091;27;4032;-62
2022/05/11 01:11:50;;;;;;;;;;;;;;;22.48;45.72;100836.91;5114876;27;4751;-61
2022/05/11 01:14:17;;;;;;;;;;;;;;;22.48;45.43;100842.69;5112883;27;4230;-62
2022/05/11 01:16:44;;;;;;;;;;;;;;;22.48;45.51;100854.22;5100496;27;4055;-62
2022/05/11 01:19:10;;;;;;;;;;;;;;;22.48;45.64;100848.47;5092032;27;3993;-62
2022/05/11 01:21:42;;;;;;;;;;;;;;;22.48;45.79;100847.72;5094834;27;4190;-62
2022/05/11 01:24:27;;;;;;;;;;;;;;;22.46;45.51;100836.84;5092807;27;5253;-61
2022/05/11 01:26:54;;;;;;;;;;;;;;;22.47;45.61;100840.47;5107716;27;5330;-61
2022/05/11 01:29:20;;;;;;;;;;;;;;;22.46;45.80;100827.44;5105407;27;4182;-62
2022/05/11 01:31:47;;;;;;;;;;;;;;;22.46;45.99;100824.56;5107839;27;5327;-62
2022/05/11 01:34:13;;;;;;;;;;;;;;;22.46;45.72;100815.91;5111690;27;4251;-62
2022/05/11 01:36:40;;;;;;;;;;;;;;;22.46;45.64;100819.53;5117664;27;4370;-62
2022/05/11 01:39:09;;;;;;;;;;;;;;;22.46;46.03;100816.63;5116813;27;4268;-62
2022/05/11 01:41:37;;;;;;;;;;;;;;;22.45;46.10;100809.41;5112741;27;4408;-63
2022/05/11 01:44:04;;;;;;;;;;;;;;;22.44;45.83;100796.38;5112546;27;5226;-63
2022/05/11 01:46:31;;;;;;;;;;;;;;;22.42;46.10;100781.13;5114206;27;4161;-62
2022/05/11 01:48:57;;;;;;;;;;;;;;;22.43;45.95;100797.78;5112427;27;4188;-62
2022/05/11 01:51:23;;;;;;;;;;;;;;;22.44;46.07;100801.41;5112268;27;4197;-62
2022/05/11 01:53:50;;;;;;;;;;;;;;;22.44;46.25;100804.28;5102168;27;5119;-62
2022/05/11 01:56:17;;;;;;;;;;;;;;;22.43;46.10;100806.44;5107728;27;5242;-62
2022/05/11 01:58:43;;;;;;;;;;;;;;;22.43;46.27;100817.97;5115301;27;4192;-62
2022/05/11 02:01:09;;;;;;;;;;;;;;;22.43;46.06;100817.97;5105592;27;4208;-62
2022/05/11 02:03:36;;;;;;;;;;;;;;;22.43;46.28;100817.97;5113993;27;5265;-63
2022/05/11 02:08:47;;;;;;;;;;;;;;;22.43;46.17;100823.75;5105470;27;4166;-62
2022/05/11 02:11:14;;;;;;;;;;;;;;;22.43;46.10;100829.53;5104722;27;4197;-62
2022/05/11 02:13:40;;;;;;;;;;;;;;;22.43;46.21;100835.28;5110730;27;4142;-63
2022/05/11 02:16:06;;;;;;;;;;;;;;;22.44;46.40;100838.91;5105137;27;4554;-62
2022/05/11 02:18:33;;;;;;;;;;;;;;;22.43;46.41;100837.44;5100939;27;4343;-62
2022/05/11 02:20:59;;;;;;;;;;;;;;;22.43;46.58;100835.28;5108139;27;4293;-63
2022/05/11 02:23:26;;;;;;;;;;;;;;;22.42;46.15;100833.78;5104781;27;4036;-63
2022/05/11 02:25:52;;;;;;;;;;;;;;;22.43;46.24;100828.78;5110673;27;4234;-63
2022/05/11 02:28:21;;;;;;;;;;;;;;;22.42;46.31;100833.78;5106885;27;4544;-62
2022/05/11 02:30:48;;;;;;;;;;;;;;;22.43;46.53;100841.06;5106927;27;4158;-63
2022/05/11 02:33:14;;;;;;;;;;;;;;;22.43;46.56;100834.56;5107331;27;4036;-62
2022/05/11 02:35:41;;;;;;;;;;;;;;;22.43;46.34;100840.31;5106928;27;4184;-63
2022/05/11 02:38:12;;;;;;;;;;;;;;;22.42;46.27;100835.94;5106077;27;4258;-60
2022/05/11 02:40:38;;;;;;;;;;;;;;;22.42;46.41;100839.56;5107647;27;4559;-63
2022/05/11 02:43:05;;;;;;;;;;;;;;;22.43;46.43;100841.06;5113548;27;4186;-62
2022/05/11 02:45:31;;;;;;;;;;;;;;;22.42;46.55;100851.09;5099190;27;4295;-63
2022/05/11 02:47:58;;;;;;;;;;;;;;;22.42;46.10;100856.88;5109715;27;4238;-62
2022/05/11 02:50:25;;;;;;;;;;;;;;;22.42;46.29;100845.34;5104328;27;4213;-63
2022/05/11 02:52:52;;;;;;;;;;;;;;;22.42;46.20;100848.22;5109538;27;5562;-62
2022/05/11 02:55:18;;;;;;;;;;;;;;;22.42;46.50;100851.09;5101266;27;4178;-62
2022/05/11 02:57:45;;;;;;;;;;;;;;;22.41;46.32;100849.63;5105590;27;4457;-62
2022/05/11 03:00:12;;;;;;;;;;;;;;;22.42;46.58;100861.91;5103968;27;5360;-62
2022/05/11 03:02:38;;;;;;;;;;;;;;;22.42;46.52;100862.66;5101357;27;4075;-62
2022/05/11 03:05:05;;;;;;;;;;;;;;;22.42;46.45;100862.66;5114147;27;4336;-62
2022/05/11 03:07:32;;;;;;;;;;;;;;;22.42;46.43;100851.09;5116944;27;4192;-62
2022/05/11 03:09:58;;;;;;;;;;;;;;;22.41;46.78;100861.19;5115593;27;4363;-62
2022/05/11 03:12:25;;;;;;;;;;;;;;;22.41;46.64;100855.41;5108775;27;4250;-62
2022/05/11 03:14:54;;;;;;;;;;;;;;;22.42;46.52;100862.66;5114635;27;4100;-62
2022/05/11 03:17:21;;;;;;;;;;;;;;;22.41;46.45;100861.19;5112309;27;4255;-62
2022/05/11 03:19:47;;;;;;;;;;;;;;;22.41;46.93;100866.22;5116232;27;4094;-62
2022/05/11 03:22:13;;;;;;;;;;;;;;;22.40;46.50;100862.56;5114205;27;4146;-62
2022/05/11 03:24:40;;;;;;;;;;;;;;;22.40;46.85;100856.81;5116722;27;4087;-62
2022/05/11 03:27:06;;;;;;;;;;;;;;;22.40;46.62;100865.44;5109015;27;4274;-63
2022/05/11 03:29:33;;;;;;;;;;;;;;;22.39;46.66;100863.97;5109057;27;4100;-62
2022/05/11 03:34:44;;;;;;;;;;;;;;;22.39;46.33;100875.53;5112279;27;4171;-62
2022/05/11 03:37:12;;;;;;;;;;;;;;;22.41;46.26;100877.75;5112732;27;4354;-63
2022/05/11 03:39:39;;;;;;;;;;;;;;;22.40;46.47;100871.22;5102808;27;4203;-62
2022/05/11 03:42:05;;;;;;;;;;;;;;;22.40;46.74;100870.50;5108601;27;4109;-62
2022/05/11 03:44:31;;;;;;;;;;;;;;;22.39;47.06;100869.75;5116586;27;4206;-62
2022/05/11 03:46:58;;;;;;;;;;;;;;;22.39;47.24;100887.06;5113176;27;4071;-62
2022/05/11 03:49:24;;;;;;;;;;;;;;;22.38;47.50;100886.31;5110122;27;4438;-62
2022/05/11 03:51:51;;;;;;;;;;;;;;;22.37;47.15;100896.38;5100916;27;4162;-62
2022/05/11 03:54:17;;;;;;;;;;;;;;;22.37;47.30;100904.28;5113192;27;4114;-62
2022/05/11 03:56:43;;;;;;;;;;;;;;;22.37;47.57;100901.41;5116657;27;5454;-62
2022/05/11 03:59:10;;;;;;;;;;;;;;;22.36;47.27;100905.72;5109630;27;4225;-62
2022/05/11 04:01:36;;;;;;;;;;;;;;;22.37;47.39;100907.19;5108591;27;4110;-62
2022/05/11 04:04:03;;;;;;;;;;;;;;;22.36;47.47;100902.81;5112874;27;4174;-62
2022/05/11 04:06:29;;;;;;;;;;;;;;;22.35;47.36;100904.94;5113296;27;4139;-62
2022/05/11 04:08:56;;;;;;;;;;;;;;;22.34;47.53;100891.94;5104804;27;4067;-62
2022/05/11 04:11:23;;;;;;;;;;;;;;;22.36;47.41;100888.41;5101419;27;4207;-63
2022/05/11 04:13:49;;;;;;;;;;;;;;;22.35;47.40;100895.56;5105386;27;4044;-62
2022/05/11 04:16:16;;;;;;;;;;;;;;;22.35;47.46;100898.44;5111501;27;5245;-62
2022/05/11 04:18:42;;;;;;;;;;;;;;;22.35;47.50;100889.78;5112509;27;4089;-63
2022/05/11 04:21:09;;;;;;;;;;;;;;;22.35;47.61;100892.69;5113882;27;5149;-63
2022/05/11 04:23:36;;;;;;;;;;;;;;;22.35;47.06;100892.69;5116937;27;5308;-63
2022/05/11 04:26:02;;;;;;;;;;;;;;;22.35;47.79;100892.69;5107478;27;4047;-63
2022/05/11 04:28:30;;;;;;;;;;;;;;;22.35;47.33;100887.63;5115115;27;4284;-63
2022/05/11 04:31:00;;;;;;;;;;;;;;;22.34;47.64;100885.44;5114009;27;4309;-62
2022/05/11 04:33:26;;;;;;;;;;;;;;;22.34;47.25;100888.31;5112973;27;4280;-62
2022/05/11 04:35:52;;;;;;;;;;;;;;;22.35;47.44;100881.13;5116917;27;4306;-62
2022/05/11 04:38:19;;;;;;;;;;;;;;;22.35;47.31;100884.03;5111117;27;5175;-62
2022/05/11 04:40:45;;;;;;;;;;;;;;;22.36;47.27;100876.84;5102795;27;4254;-62
2022/05/11 04:43:12;;;;;;;;;;;;;;;22.35;47.48;100881.13;5108247;27;5396;-62
2022/05/11 04:45:38;;;;;;;;;;;;;;;22.35;47.28;100878.25;5109125;27;4468;-63
2022/05/11 04:48:05;;;;;;;;;;;;;;;22.33;47.41;100878.16;5113779;27;4364;-66
2022/05/11 04:50:31;;;;;;;;;;;;;;;22.30;47.06;100865.06;5109023;27;3993;-66
2022/05/11 04:52:57;;;;;;;;;;;;;;;22.31;47.32;100869.44;5116826;27;4545;-65
2022/05/11 04:55:24;;;;;;;;;;;;;;;22.30;47.17;100871.59;5110328;27;4938;-67
2022/05/11 04:57:50;;;;;;;;;;;;;;;22.29;47.26;100866.50;5117068;27;4303;-65
2022/05/11 05:00:17;;;;;;;;;;;;;;;22.30;47.45;100873.72;5110682;27;4199;-67
2022/05/11 05:02:43;;;;;;;;;;;;;;;22.31;47.31;100875.19;5111777;27;4212;-68
2022/05/11 05:05:10;;;;;;;;;;;;;;;22.31;47.51;100870.19;5114308;27;5316;-70
2022/05/11 05:07:39;;;;;;;;;;;;;;;22.19;51.23;100861.03;5111614;27;4060;-69
2022/05/11 05:10:06;;;;;;;;;;;;;;;22.17;52.41;100863.81;5116024;27;4244;-68
2022/05/11 05:12:33;;;;;;;;;;;;;;;22.18;51.87;100857.41;5118657;27;4245;-69
2022/05/11 05:14:59;;;;;;;;;;;;;;;22.20;51.67;100856.00;5118840;27;4170;-69
2022/05/11 05:17:25;;;;;;;;;;;;;;;22.20;51.58;100856.75;5118107;27;5358;-69
2022/05/11 05:19:52;;;;;;;;;;;;;;;22.22;51.16;100850.34;5121059;27;4383;-69
2022/05/11 05:22:18;;;;;;;;;;;;;;;22.22;50.84;100861.88;5117510;27;5280;-69
2022/05/11 05:24:44;;;;;;;;;;;;;;;22.22;50.92;100868.41;5116599;27;3942;-68
2022/05/11 05:27:12;;;;;;;;;;;;;;;22.22;50.58;100873.41;5115331;27;4562;-69
2022/05/11 05:32:23;;;;;;;;;;;;;;;22.23;49.44;100880.66;5118563;27;5610;-68
2022/05/11 05:34:50;;;;;;;;;;;;;;;22.23;49.72;100880.66;5119031;27;4282;-68
2022/05/11 05:37:16;;;;;;;;;;;;;;;22.22;49.81;100876.28;5114443;27;5304;-67
2022/05/11 05:39:43;;;;;;;;;;;;;;;22.22;49.26;100876.28;5116085;27;5400;-69
2022/05/11 05:42:15;;;;;;;;;;;;;;;22.22;49.71;100879.16;5116688;27;5399;-68
2022/05/11 05:44:42;;;;;;;;;;;;;;;22.24;49.52;100870.59;5118827;27;4964;-69
2022/05/11 05:47:08;;;;;;;;;;;;;;;22.23;49.65;100872.75;5117319;27;4180;-66
2022/05/11 05:49:35;;;;;;;;;;;;;;;22.24;49.54;100870.59;5115661;27;4293;-67
2022/05/11 05:52:01;;;;;;;;;;;;;;;22.22;49.12;100871.28;5101580;27;4139;-67
2022/05/11 05:54:34;;;;;;;;;;;;;;;22.24;49.69;100879.25;5106695;27;6128;-67
2022/05/11 05:57:00;;;;;;;;;;;;;;;22.24;49.92;100876.38;5106001;27;4526;-67
2022/05/11 05:59:26;;;;;;;;;;;;;;;22.22;49.18;100874.16;5104972;27;5484;-67
2022/05/11 06:01:53;;;;;;;;;;;;;;;22.22;49.66;100871.28;5108516;27;5491;-67
2022/05/11 06:04:19;;;;;;;;;;;;;;;22.22;49.89;100868.41;5101686;27;5671;-67
2022/05/11 06:06:46;;;;;;;;;;;;;;;22.22;49.51;100873.41;5106553;27;6873;-67
2022/05/11 06:09:12;;;;;;;;;;;;;;;22.22;49.62;100856.88;5106532;27;4608;-67
2022/05/11 06:11:41;;;;;;;;;;;;;;;22.21;49.84;100854.59;5108111;27;4343;-67
2022/05/11 06:14:07;;;;;;;;;;;;;;;22.22;49.44;100853.22;5106645;27;4282;-67
2022/05/11 06:16:33;;;;;;;;;;;;;;;22.22;49.44;100844.56;5105631;27;5440;-67
2022/05/11 06:19:00;;;;;;;;;;;;;;;22.21;49.62;100851.72;5106980;27;4582;-67
2022/05/11 06:21:26;;;;;;;;;;;;;;;22.21;49.58;100840.19;5103344;27;5112;-67
2022/05/11 06:23:53;;;;;;;;;;;;;;;22.21;49.28;100840.94;5104481;27;5049;-67
2022/05/11 06:26:19;;;;;;;;;;;;;;;22.22;49.49;100830.13;5105503;27;4805;-67
2022/05/11 06:28:46;;;;;;;;;;;;;;;22.22;49.27;100833.03;5108177;27;4335;-67
2022/05/11 06:31:17;;;;;;;;;;;;;;;22.22;49.47;100830.13;5103962;27;5730;-67
2022/05/11 06:33:49;;;;;;;;;;;;;;;22.21;49.29;100814.22;5105925;27;4439;-67
2022/05/11 06:36:15;;;;;;;;;;;;;;;22.22;49.41;100804.19;5104583;27;4569;-67
2022/05/11 06:38:42;;;;;;;;;;;;;;;22.21;49.41;100808.44;5107972;27;4544;-67
2022/05/11 06:41:09;;;;;;;;;;;;;;;22.21;49.34;100814.22;5106868;27;4625;-67
2022/05/11 06:43:35;;;;;;;;;;;;;;;22.20;49.56;100815.63;5105933;27;3936;-67
2022/05/11 06:46:02;;;;;;;;;;;;;;;22.21;49.59;100822.88;5107925;27;5761;-67
2022/05/11 06:48:28;;;;;;;;;;;;;;;22.21;49.49;100814.22;5101855;27;4034;-67
2022/05/11 06:50:54;;;;;;;;;;;;;;;22.21;49.46;100811.34;5105650;27;4764;-67
2022/05/11 06:53:21;;;;;;;;;;;;;;;22.20;49.87;100807.00;5104578;27;4089;-67
2022/05/11 07:01:17;;;;;;;;;;;;;;;22.19;49.45;100806.22;5104835;27;4384;-67
2022/05/11 07:03:44;;;;;;;;;;;;;;;22.18;49.60;100799.72;5103482;27;4631;-67
2022/05/11 07:06:11;;;;;;;;;;;;;;;22.20;49.59;100801.22;5103298;27;4589;-67
2022/05/11 07:08:39;;;;;;;;;;;;;;;22.19;49.62;100788.91;5105615;27;5622;-67
2022/05/11 07:13:53;;;;;;;;;;;;;;;22.20;49.61;100778.88;5116983;27;4862;-67
2022/05/11 07:16:19;;;;;;;;;;;;;;;22.21;49.68;100776.72;5116718;27;4790;-67
2022/05/11 07:18:46;;;;;;;;;;;;;;;22.21;49.51;100768.06;5115565;27;4592;-67
2022/05/11 07:21:13;;;;;;;;;;;;;;;22.19;49.74;100762.97;5115883;27;4533;-67
2022/05/11 07:23:39;;;;;;;;;;;;;;;22.20;49.63;100767.34;5116162;27;5187;-67
2022/05/11 07:26:05;;;;;;;;;;;;;;;22.21;49.61;100773.84;5116357;27;4112;-67
2022/05/11 07:28:32;;;;;;;;;;;;;;;22.20;49.48;100773.09;5115305;27;4575;-67
2022/05/11 07:30:58;;;;;;;;;;;;;;;22.20;49.56;100766.59;5116139;27;4747;-67
2022/05/11 07:33:25;;;;;;;;;;;;;;;22.20;49.67;100755.06;5116408;27;4142;-67
2022/05/11 07:35:52;;;;;;;;;;;;;;;22.20;49.74;100769.50;5116382;27;4610;-67
2022/05/11 07:38:19;;;;;;;;;;;;;;;22.20;49.40;100760.84;5115507;27;4440;-67
2022/05/11 07:40:45;;;;;;;;;;;;;;;22.20;49.33;100760.84;5116436;27;4048;-67
2022/05/11 07:43:12;;;;;;;;;;;;;;;22.20;49.69;100749.31;5115288;28;4289;-67
2022/05/11 07:45:38;;;;;;;;;;;;;;;22.21;49.56;100750.78;5116608;28;4176;-66
2022/05/11 07:48:05;;;;;;;;;;;;;;;22.21;49.79;100750.78;5116322;27;5719;-67
2022/05/11 07:50:31;;;;;;;;;;;;;;;22.20;49.55;100740.66;5120061;27;4506;-67
2022/05/11 07:52:58;;;;;;;;;;;;;;;22.20;49.63;100738.50;5121407;27;4254;-67
2022/05/11 07:55:25;;;;;;;;;;;;;;;22.21;49.46;100733.47;5120160;27;4516;-67
2022/05/11 08:00:37;;;;;;;;;;;;;;;22.20;49.54;100732.00;5119692;27;4567;-67
2022/05/11 08:03:06;;;;;;;;;;;;;;;22.21;49.57;100727.69;5119700;27;4603;-66
2022/05/11 08:05:32;;;;;;;;;;;;;;;22.21;49.58;100727.69;5119055;27;5423;-66
2022/05/11 08:08:01;;;;;;;;;;;;;;;22.20;49.25;100720.47;5119322;27;4303;-67
2022/05/11 08:10:29;;;;;;;;;;;;;;;22.18;49.28;100718.97;5119063;27;5719;-67
2022/05/11 08:12:55;;;;;;;;;;;;;;;22.18;49.10;100713.19;5120683;27;4150;-67
2022/05/11 08:15:22;;;;;;;;;;;;;;;22.18;49.21;100716.09;5119265;27;5211;-67
2022/05/11 08:17:49;;;;;;;;;;;;;;;22.19;49.19;100713.94;5119431;27;5556;-67
2022/05/11 08:20:19;;;;;;;;;;;;;;;22.20;49.16;100711.81;5119411;27;4596;-67
2022/05/11 08:22:45;;;;;;;;;;;;;;;22.20;49.31;100708.94;5119872;27;5447;-67
2022/05/11 08:25:12;;;;;;;;;;;;;;;22.20;49.02;100697.38;5119273;27;4647;-67
2022/05/11 08:27:39;;;;;;;;;;;;;;;22.20;49.27;100703.16;5120325;27;4583;-67
2022/05/11 08:35:57;;;;;;;;;;;;;;;22.21;49.24;100693.09;5117199;27;4401;-67
2022/05/11 08:38:23;;;;;;;;;;;;;;;22.21;48.96;100684.44;5119233;27;4285;-67
2022/05/11 08:40:56;;;;;;;;;;;;;;;22.21;49.06;100688.06;5117508;27;4158;-66
2022/05/11 08:43:22;;;;;;;;;;;;;;;22.21;49.23;100682.31;5117617;27;4503;-66
2022/05/11 08:46:02;;;;;;;;;;;;;;;22.21;49.14;100682.31;5118953;27;4172;-67
2022/05/11 08:48:31;;;;;;;;;;;;;;;22.21;48.75;100670.00;5106874;27;4527;-66
2022/05/11 08:50:58;;;;;;;;;;;;;;;22.21;48.87;100675.78;5117398;27;4710;-67
2022/05/11 08:53:28;;;;;;;;;;;;;;;22.21;48.56;100667.88;5098366;27;4429;-67
2022/05/11 08:55:55;;;;;;;;;;;;;;;22.22;48.53;100662.84;5090054;27;5376;-67
2022/05/11 08:58:25;;;;;;;;;;;;;;;22.22;48.46;100671.50;5114096;27;5424;-67
2022/05/11 09:00:52;;;;;;;;;;;;;;;22.22;48.75;100671.50;5106360;27;5855;-67
2022/05/11 09:03:32;;;;;;;;;;;;;;;22.23;48.64;100673.00;5117949;27;4432;-67
2022/05/11 09:05:59;;;;;;;;;;;;;;;22.22;48.75;100659.97;5118611;27;4553;-67
2022/05/11 09:08:25;;;;;;;;;;;;;;;22.22;48.33;100662.84;5118234;27;4602;-67
2022/05/11 09:10:52;;;;;;;;;;;;;;;22.22;48.42;100666.50;5117749;27;4053;-67
2022/05/11 09:13:20;;;;;;;;;;;;;;;22.21;48.74;100656.34;5116624;27;4202;-67
2022/05/11 09:15:46;;;;;;;;;;;;;;;22.23;48.91;100664.34;5118339;27;4578;-66
2022/05/11 09:18:13;;;;;;;;;;;;;;;22.22;48.90;100657.84;5118324;27;4087;-67
2022/05/11 09:20:43;;;;;;;;;;;;;;;22.22;48.87;100636.91;5117051;27;4569;-67
2022/05/11 09:23:09;;;;;;;;;;;;;;;22.21;48.79;100636.16;5116424;27;4521;-67
2022/05/11 09:25:36;;;;;;;;;;;;;;;22.22;48.79;100636.91;5116828;27;4307;-67
2022/05/11 09:28:18;;;;;;;;;;;;;;;22.23;48.93;100632.63;5118859;27;6176;-67
2022/05/11 09:31:01;;;;;;;;;;;;;;;22.22;49.03;100639.78;5116201;27;6687;-67
2022/05/11 09:33:34;;;;;;;;;;;;;;;22.22;49.04;100625.38;5113994;27;4153;-67
2022/05/11 09:36:03;;;;;;;;;;;;;;;22.23;49.08;100626.84;5097221;27;4551;-67
2022/05/11 09:38:49;;;;;;;;;;;;;;;22.22;48.93;100614.59;5117934;27;4193;-66
2022/05/11 09:41:19;;;;;;;;;;;;;;;22.22;48.88;100608.81;5116151;27;4521;-66
2022/05/11 09:43:46;;;;;;;;;;;;;;;22.22;49.03;100611.69;5118608;27;4235;-66
2022/05/11 09:46:31;;;;;;;;;;;;;;;22.23;49.07;100598.00;5105190;27;4461;-67
2022/05/11 09:49:09;;;;;;;;;;;;;;;22.22;48.95;100590.75;5118857;27;7121;-67
2022/05/11 09:51:35;;;;;;;;;;;;;;;22.20;49.00;100597.19;5103826;27;4525;-66
2022/05/11 09:54:02;;;;;;;;;;;;;;;22.21;48.94;100595.03;5116151;27;4369;-66
2022/05/11 09:56:48;;;;;;;;;;;;;;;22.21;49.22;100583.50;5117620;27;4381;-67
2022/05/11 09:59:36;;;;;;;;;;;;;;;22.22;48.81;100584.97;5117560;27;5658;-67
2022/05/11 10:02:04;;;;;;;;;;;;;;;22.22;49.06;100579.22;5118581;27;4164;-67
2022/05/11 10:04:33;;;;;;;;;;;;;;;22.22;48.60;100568.44;5105013;27;4555;-66
2022/05/11 10:07:02;;;;;;;;;;;;;;;22.21;48.86;100561.19;5117710;27;4446;-67
2022/05/11 10:09:30;;;;;;;;;;;;;;;22.22;48.52;100556.16;5117625;27;4888;-67
2022/05/11 10:12:04;;;;;;;;;;;;;;;22.21;48.51;100560.41;5105945;27;4399;-66
2022/05/11 10:23:19;;;;;;;;;;;;;;;22.23;48.65;100534.56;5117033;27;4544;-66
2022/05/11 10:25:46;;;;;;;;;;;;;;;22.22;48.33;100539.59;5117109;27;5368;-66
2022/05/11 10:28:30;;;;;;;;;;;;;;;22.23;48.20;100517.25;5117402;27;4628;-67
2022/05/11 10:30:56;;;;;;;;;;;;;;;22.22;48.43;100522.28;5116493;27;4427;-66
2022/05/11 10:33:26;;;;;;;;;;;;;;;22.21;48.25;100517.91;5115913;27;4577;-66
2022/05/11 10:35:53;;;;;;;;;;;;;;;22.22;48.49;100521.53;5117022;27;4532;-66
2022/05/11 10:38:29;;;;;;;;;;;;;;;22.22;48.29;100510.75;5116519;27;4783;-67
2022/05/11 10:41:22;;;;;;;;;;;;;;;22.23;48.44;100515.09;5098922;27;6481;-67
2022/05/11 10:43:54;;;;;;;;;;;;;;;22.22;48.50;100510.00;5081458;27;4653;-67
2022/05/11 10:46:26;;;;;;;;;;;;;;;22.21;48.14;100500.63;5116284;27;4677;-66
2022/05/11 10:49:05;;;;;;;;;;;;;;;22.24;48.34;100504.31;5117548;27;4096;-67
2022/05/11 10:51:42;;;;;;;;;;;;;;;22.23;48.25;100499.94;5116433;27;3937;-66
2022/05/11 10:54:19;;;;;;;;;;;;;;;22.24;48.06;100505.06;5115340;27;5596;-67
2022/05/11 10:56:48;;;;;;;;;;;;;;;22.24;48.12;100489.88;5104189;27;4578;-67
2022/05/11 10:59:33;;;;;;;;;;;;;;;22.23;48.13;100494.19;5116264;27;4203;-66
2022/05/11 11:02:15;;;;;;;;;;;;;;;22.23;48.15;100492.03;5116315;27;3982;-67
2022/05/11 11:04:48;;;;;;;;;;;;;;;22.23;48.08;100477.63;5116037;27;4140;-66
2022/05/11 11:07:16;;;;;;;;;;;;;;;22.24;47.98;100481.22;5115361;27;5645;-67
2022/05/11 11:09:52;;;;;;;;;;;;;;;22.24;48.27;100472.56;5104454;27;4281;-67
2022/05/11 11:12:42;;;;;;;;;;;;;;;22.24;48.14;100470.44;5115929;27;4515;-67
2022/05/11 11:15:12;;;;;;;;;;;;;;;22.25;48.28;100456.75;5116519;27;4342;-66
2022/05/11 11:17:39;;;;;;;;;;;;;;;22.24;48.04;100461.03;5102737;27;4858;-67
2022/05/11 11:20:05;;;;;;;;;;;;;;;22.25;48.23;100463.25;5098827;27;4110;-67
2022/05/11 11:22:51;;;;;;;;;;;;;;;22.24;48.16;100463.94;5104299;28;4612;-67
2022/05/11 11:25:20;;;;;;;;;;;;;;;22.25;48.25;100468.28;5116574;27;5280;-67
2022/05/11 11:28:10;;;;;;;;;;;;;;;22.24;47.75;100455.28;5116128;27;4550;-67
2022/05/11 11:30:37;;;;;;;;;;;;;;;22.25;48.21;100459.66;5103881;27;4343;-66
2022/05/11 11:33:15;;;;;;;;;;;;;;;22.24;47.81;100443.72;5115912;27;4084;-67
2022/05/11 11:36:00;;;;;;;;;;;;;;;22.25;48.11;100456.75;5115713;27;4415;-66
2022/05/11 11:38:39;;;;;;;;;;;;;;;22.26;47.85;100449.56;5116760;27;4515;-66
2022/05/11 11:41:21;;;;;;;;;;;;;;;22.25;47.88;100448.09;5116333;27;4260;-67
2022/05/11 11:43:51;;;;;;;;;;;;;;;22.25;48.19;100442.34;5116352;27;4138;-67
2022/05/11 11:46:27;;;;;;;;;;;;;;;22.26;47.83;100449.56;5115586;28;4476;-67
2022/05/11 11:49:13;;;;;;;;;;;;;;;22.26;47.65;100446.69;5116948;28;4458;-67
2022/05/11 11:51:52;;;;;;;;;;;;;;;22.26;48.01;100435.16;5115536;28;4405;-67
2022/05/11 11:54:25;;;;;;;;;;;;;;;22.26;47.80;100435.88;5115946;28;5251;-67
2022/05/11 11:56:54;;;;;;;;;;;;;;;22.27;47.73;100419.34;5116132;28;5534;-67
2022/05/11 11:59:23;;;;;;;;;;;;;;;22.25;47.77;100422.16;5115170;28;4095;-66
2022/05/11 12:01:51;;;;;;;;;;;;;;;22.27;47.98;100419.34;5113392;28;5273;-66
2022/05/11 12:04:22;;;;;;;;;;;;;;;22.27;47.77;100419.34;5103077;28;4433;-67
2022/05/11 12:15:12;;;;;;;;;;;;;;;22.26;47.88;100412.81;5115449;28;4654;-67
2022/05/11 12:17:39;;;;;;;;;;;;;;;22.27;47.81;100413.56;5115181;28;4996;-67
2022/05/11 12:20:08;;;;;;;;;;;;;;;22.27;47.86;100407.78;5115911;28;4261;-67
2022/05/11 12:22:43;;;;;;;;;;;;;;;22.28;47.83;100410.00;5116378;28;5583;-67
2022/05/11 12:25:21;;;;;;;;;;;;;;;22.27;47.80;100399.88;5114912;28;5374;-66
2022/05/11 12:27:48;;;;;;;;;;;;;;;22.28;47.79;100400.59;5115964;28;5488;-67
2022/05/11 12:30:43;;;;;;;;;;;;;;;22.28;47.68;100403.50;5115267;28;4652;-67
2022/05/11 12:33:18;;;;;;;;;;;;;;;22.27;47.52;100394.09;5102037;28;4511;-67
2022/05/11 12:35:45;;;;;;;;;;;;;;;22.28;47.66;100386.19;5118883;27;4076;-67
2022/05/11 12:38:12;;;;;;;;;;;;;;;22.28;47.75;100381.16;5120353;27;5200;-67
2022/05/11 12:40:42;;;;;;;;;;;;;;;22.28;47.48;100380.41;5119888;27;4206;-67
2022/05/11 12:43:27;;;;;;;;;;;;;;;22.28;47.58;100374.66;5107992;27;4441;-66
2022/05/11 12:45:57;;;;;;;;;;;;;;;22.28;47.59;100380.41;5119213;27;4660;-67
2022/05/11 12:48:25;;;;;;;;;;;;;;;22.27;47.53;100378.97;5119163;27;4760;-66
2022/05/11 12:50:52;;;;;;;;;;;;;;;22.27;47.75;100378.97;5106487;27;4363;-67
2022/05/11 12:53:20;;;;;;;;;;;;;;;22.28;47.53;100372.50;5115973;27;4289;-65
2022/05/11 12:55:50;;;;;;;;;;;;;;;22.29;47.86;100371.09;5107811;27;4424;-67
2022/05/11 12:58:26;;;;;;;;;;;;;;;22.31;47.78;100367.53;5119623;27;4161;-67
2022/05/11 13:00:56;;;;;;;;;;;;;;;22.31;47.37;100368.28;5121486;27;4203;-68
2022/05/11 13:03:26;;;;;;;;;;;;;;;22.31;47.66;100364.63;5119811;27;4859;-68
2022/05/11 13:05:53;;;;;;;;;;;;;;;22.32;47.28;100363.25;5117397;27;4344;-68
2022/05/11 13:08:20;;;;;;;;;;;;;;;22.32;47.27;100351.72;5119353;27;4005;-68
2022/05/11 13:10:46;;;;;;;;;;;;;;;22.33;47.31;100356.06;5121015;27;4041;-68
2022/05/11 13:13:14;;;;;;;;;;;;;;;22.32;47.61;100358.19;5120230;27;3991;-67
2022/05/11 13:15:41;;;;;;;;;;;;;;;22.33;47.39;100350.28;5120018;27;4027;-68
2022/05/11 13:18:14;;;;;;;;;;;;;;;22.32;47.26;100351.72;5119964;27;4322;-68
2022/05/11 13:20:41;;;;;;;;;;;;;;;22.33;47.67;100358.94;5101892;27;4485;-67
2022/05/11 13:23:11;;;;;;;;;;;;;;;22.33;47.49;100358.94;5102675;27;4412;-67
2022/05/11 13:25:38;;;;;;;;;;;;;;;22.33;47.46;100341.63;5120061;27;4114;-67
2022/05/11 13:28:09;;;;;;;;;;;;;;;22.33;47.35;100344.50;5116854;27;4239;-64
2022/05/11 13:30:37;;;;;;;;;;;;;;;22.35;47.49;100344.56;5111601;27;4520;-65
2022/05/11 13:33:04;;;;;;;;;;;;;;;22.34;47.69;100346.00;5117142;27;4112;-59
2022/05/11 13:35:37;;;;;;;;;;;;;;;22.37;47.75;100353.28;5116769;27;4080;-67
2022/05/11 13:38:23;;;;;;;;;;;;;;;22.37;47.51;100341.75;5118757;27;5171;-59